createdAt,value
2023-04-22T00:09:30.418Z,100201.44
2023-04-22T00:11:59.207Z,100201.44
2023-04-22T00:14:27.165Z,100209.53
2023-04-22T00:16:56.241Z,100204.22
2023-04-22T00:19:24.546Z,100192.69
2023-04-22T00:21:53.305Z,100204.81
2023-04-22T00:24:21.200Z,100202.97
2023-04-22T00:26:49.396Z,100200.31
2023-04-22T00:29:17.507Z,100192.72
2023-04-22T00:47:02.837Z,100196.59
2023-04-22T00:49:32.661Z,100196.59
2023-04-22T00:52:00.603Z,100206.44
2023-04-22T00:54:29.325Z,100204.53
2023-04-22T00:56:59.015Z,100206.28
2023-04-22T00:59:27.186Z,100206.41
2023-04-22T01:01:56.269Z,100200.44
2023-04-22T01:07:15.276Z,100207.31
2023-04-22T01:09:43.943Z,100207.31
2023-04-22T01:12:11.930Z,100211.56
2023-04-22T01:14:40.087Z,100210.94
2023-04-22T01:17:10.273Z,100202.47
2023-04-22T01:19:39.051Z,100190.53
2023-04-22T01:22:08.573Z,100212.84
2023-04-22T01:24:36.920Z,100216.94
2023-04-22T01:27:14.463Z,100221.88
2023-04-22T01:47:45.776Z,100209.87
2023-04-22T01:50:14.707Z,100209.87
2023-04-22T01:52:42.623Z,100209.72
2023-04-22T01:55:10.748Z,100213.66
2023-04-22T01:57:39.069Z,100195.03
2023-04-22T02:00:08.631Z,100195.28
2023-04-22T02:02:40.422Z,100206.53
2023-04-22T02:05:14.617Z,100199.50
2023-04-22T02:25:39.677Z,100198.41
2023-04-22T02:28:08.610Z,100198.41
2023-04-22T02:30:37.324Z,100144.00
2023-04-22T02:33:05.275Z,100195.31
2023-04-22T02:35:33.654Z,100199.00
2023-04-22T02:38:01.591Z,100205.34
2023-04-22T02:40:29.583Z,100207.97
2023-04-22T03:03:37.327Z,100211.88
2023-04-22T03:06:06.733Z,100211.88
2023-04-22T03:08:34.678Z,100223.19
2023-04-22T03:11:02.615Z,100171.66
2023-04-22T03:13:30.828Z,100193.22
2023-04-22T03:15:58.772Z,100218.59
2023-04-22T03:18:26.851Z,100222.12
2023-04-22T03:20:55.379Z,100204.91
2023-04-22T03:23:24.596Z,100209.06
2023-04-22T03:43:48.736Z,100228.94
2023-04-22T03:46:18.871Z,100228.94
2023-04-22T03:48:47.611Z,100234.88
2023-04-22T03:51:15.939Z,100236.00
2023-04-22T03:53:44.266Z,100232.72
2023-04-22T03:56:12.766Z,100238.84
2023-04-22T03:58:41.396Z,100242.03
2023-04-22T04:01:09.932Z,100235.84
2023-04-22T04:21:36.493Z,100235.78
2023-04-22T04:24:07.357Z,100235.78
2023-04-22T04:26:38.580Z,100242.53
2023-04-22T04:29:08.893Z,100216.31
2023-04-22T04:31:37.844Z,100250.37
2023-04-22T04:34:06.077Z,100250.94
2023-04-22T04:36:36.878Z,100239.66
2023-04-22T04:39:15.958Z,100255.03
2023-04-22T04:59:11.897Z,100259.44
2023-04-22T05:01:41.603Z,100259.44
2023-04-22T05:04:10.019Z,100259.31
2023-04-22T05:06:38.787Z,100262.94
2023-04-22T05:09:08.245Z,100264.81
2023-04-22T05:11:36.612Z,100267.37
2023-04-22T05:14:06.370Z,100265.13
2023-04-22T05:16:35.060Z,100252.88
2023-04-22T05:36:32.609Z,100269.00
2023-04-22T05:39:01.778Z,100269.00
2023-04-22T05:41:30.670Z,100268.16
2023-04-22T05:43:58.828Z,100272.53
2023-04-22T05:46:29.572Z,100269.44
2023-04-22T05:48:57.715Z,100239.41
2023-04-22T05:51:26.689Z,100276.59
2023-04-22T06:11:54.838Z,100290.56
2023-04-22T06:14:24.035Z,100290.56
2023-04-22T06:16:53.188Z,100288.78
2023-04-22T06:19:21.365Z,100303.53
2023-04-22T06:21:49.736Z,100293.78
2023-04-22T06:24:17.576Z,100296.38
2023-04-22T06:29:30.232Z,100299.19
2023-04-22T06:52:42.150Z,100310.75
2023-04-22T06:55:11.140Z,100310.75
2023-04-22T06:57:39.174Z,100313.47
2023-04-22T07:00:10.844Z,100313.44
2023-04-22T07:02:39.247Z,100316.53
2023-04-22T07:05:07.579Z,100315.34
2023-04-22T07:07:36.094Z,100314.19
2023-04-22T07:10:07.033Z,100294.03
2023-04-22T07:32:52.615Z,100304.53
2023-04-22T07:35:21.398Z,100304.53
2023-04-22T07:37:49.272Z,100306.03
2023-04-22T07:40:17.514Z,100306.59
2023-04-22T07:42:45.967Z,100314.06
2023-04-22T07:45:14.208Z,100296.84
2023-04-22T07:47:42.346Z,100296.12
2023-04-22T07:50:11.272Z,100308.44
2023-04-22T07:52:39.358Z,100303.53
2023-04-22T08:13:06.295Z,100303.91
2023-04-22T08:15:34.976Z,100303.91
2023-04-22T08:18:02.928Z,100306.44
2023-04-22T08:20:30.937Z,100313.47
2023-04-22T08:23:00.716Z,100307.03
2023-04-22T08:25:28.905Z,100297.69
2023-04-22T08:27:56.792Z,100304.50
2023-04-22T08:30:25.108Z,100302.56
2023-04-22T08:50:53.844Z,100304.44
2023-04-22T08:53:24.893Z,100304.44
2023-04-22T08:55:56.734Z,100287.25
2023-04-22T08:58:25.405Z,100265.09
2023-04-22T09:00:56.304Z,100310.44
2023-04-22T09:03:24.578Z,100306.50
2023-04-22T09:05:54.567Z,100276.56
2023-04-22T09:26:30.992Z,100292.16
2023-04-22T09:29:01.083Z,100292.16
2023-04-22T09:31:29.059Z,100294.81
2023-04-22T09:33:58.860Z,100291.25
2023-04-22T09:36:31.080Z,100288.09
2023-04-22T09:39:07.553Z,100289.25
2023-04-22T09:41:40.538Z,100283.41
2023-04-22T10:02:30.103Z,100263.94
2023-04-22T10:04:59.125Z,100263.94
2023-04-22T10:07:31.733Z,100270.34
2023-04-22T10:10:00.218Z,100261.88
2023-04-22T10:12:35.169Z,100263.69
2023-04-22T10:15:06.559Z,100259.66
2023-04-22T10:17:37.818Z,100265.31
2023-04-22T10:38:50.626Z,100236.16
2023-04-22T10:41:29.452Z,100236.16
2023-04-22T10:44:00.164Z,100237.16
2023-04-22T10:46:51.160Z,100233.59
2023-04-22T10:49:24.559Z,100247.88
2023-04-22T10:51:58.546Z,100213.59
2023-04-22T10:54:32.006Z,100242.16
2023-04-22T11:12:42.768Z,100228.22
2023-04-22T11:15:16.353Z,100228.22
2023-04-22T11:17:50.582Z,100226.00
2023-04-22T11:20:19.990Z,100224.69
2023-04-22T11:22:55.727Z,100209.47
2023-04-22T11:25:26.093Z,100220.09
2023-04-22T11:27:55.353Z,100218.06
2023-04-22T11:50:42.388Z,100212.59
2023-04-22T11:53:19.584Z,100212.59
2023-04-22T11:55:51.282Z,100228.84
2023-04-22T11:58:24.842Z,100222.72
2023-04-22T12:00:54.371Z,100219.22
2023-04-22T12:03:27.988Z,100215.59
2023-04-22T12:06:01.959Z,100211.81
2023-04-22T12:29:33.965Z,100189.41
2023-04-22T12:32:02.785Z,100189.41
2023-04-22T12:34:31.738Z,100186.00
2023-04-22T12:37:01.136Z,100154.59
2023-04-22T12:39:29.390Z,100152.66
2023-04-22T12:41:57.898Z,100195.78
2023-04-22T12:44:25.958Z,100144.53
2023-04-22T12:46:54.440Z,100124.66
2023-04-22T12:49:22.398Z,100086.28
2023-04-22T12:51:50.332Z,100186.88
2023-04-22T12:54:21.659Z,100181.31
2023-04-22T12:56:49.709Z,100189.56
2023-04-22T12:59:17.878Z,100163.69
2023-04-22T13:01:46.524Z,100101.69
2023-04-22T13:04:14.585Z,100145.81
2023-04-22T13:06:44.278Z,100127.09
2023-04-22T13:09:13.290Z,100180.66
2023-04-22T13:11:41.527Z,100179.72
2023-04-22T13:14:09.601Z,100174.09
2023-04-22T13:16:38.034Z,100177.41
2023-04-22T13:19:06.242Z,100179.31
2023-04-22T13:21:34.323Z,100149.06
2023-04-22T13:24:03.461Z,100162.53
2023-04-22T13:26:31.765Z,100162.75
2023-04-22T13:29:02.042Z,100155.22
2023-04-22T13:31:31.315Z,100130.12
2023-04-22T13:36:43.729Z,100086.06
2023-04-22T16:44:29.402Z,100083.47
2023-04-22T16:46:58.066Z,100087.91
2023-04-22T16:49:26.209Z,100057.37
2023-04-22T16:51:54.170Z,100097.84
2023-04-22T16:54:22.441Z,100099.16
2023-04-22T16:56:50.431Z,100092.75
2023-04-22T16:59:18.312Z,100093.53
2023-04-22T17:22:25.696Z,100089.75
2023-04-22T17:24:56.731Z,100089.75
2023-04-22T17:27:24.940Z,100097.72
2023-04-22T17:29:53.949Z,100092.63
2023-04-22T17:32:21.922Z,100087.75
2023-04-22T17:34:49.846Z,100095.75
2023-04-22T17:37:18.008Z,100088.19
2023-04-22T17:39:46.131Z,100080.66
2023-04-22T17:42:14.663Z,100072.62
2023-04-22T18:05:08.042Z,100112.84
2023-04-22T18:07:36.886Z,100112.84
2023-04-22T18:10:05.306Z,100124.22
2023-04-22T18:12:33.497Z,100100.50
2023-04-22T18:15:01.775Z,100126.06
2023-04-22T18:17:30.176Z,100130.94
2023-04-22T18:20:17.573Z,100138.16
2023-04-22T18:40:44.983Z,100148.78
2023-04-22T18:43:13.600Z,100148.78
2023-04-22T18:45:41.557Z,100158.78
2023-04-22T18:48:09.576Z,100155.56
2023-04-22T18:50:37.850Z,100163.78
2023-04-22T18:53:05.827Z,100148.06
2023-04-22T18:55:33.656Z,100161.31
2023-04-22T18:58:02.078Z,100134.66
2023-04-22T19:16:00.935Z,100163.13
2023-04-22T19:18:29.844Z,100163.13
2023-04-22T19:20:57.914Z,100144.25
2023-04-22T19:23:26.089Z,100173.56
2023-04-22T19:25:54.286Z,100158.72
2023-04-22T19:28:22.353Z,100161.41
2023-04-22T19:30:50.914Z,100167.34
2023-04-22T19:33:19.331Z,100160.03
2023-04-22T19:56:15.775Z,100165.13
2023-04-22T19:58:45.028Z,100165.13
2023-04-22T20:01:13.290Z,100162.72
2023-04-22T20:03:42.115Z,100167.44
2023-04-22T20:06:12.984Z,100166.81
2023-04-22T20:08:42.748Z,100163.38
2023-04-22T20:11:12.102Z,100170.75
2023-04-22T20:13:42.359Z,100151.09
2023-04-22T20:29:22.851Z,100084.34
2023-04-22T20:31:51.670Z,100084.34
2023-04-22T20:34:19.856Z,100166.84
2023-04-22T20:36:49.593Z,100132.53
2023-04-22T20:39:18.420Z,100165.03
2023-04-22T20:41:49.015Z,100162.56
2023-04-22T20:44:17.142Z,100155.03
2023-04-22T20:46:45.177Z,100153.19
2023-04-22T21:07:16.899Z,100161.34
2023-04-22T21:09:47.153Z,100161.34
2023-04-22T21:12:17.484Z,100163.38
2023-04-22T21:14:46.036Z,100167.81
2023-04-22T21:17:25.278Z,100159.88
2023-04-22T21:19:56.950Z,100143.88
2023-04-22T21:22:26.069Z,100159.00
2023-04-22T21:24:54.447Z,100146.72
2023-04-22T21:27:22.933Z,100167.34
2023-04-22T21:50:33.863Z,100167.03
2023-04-22T21:53:02.714Z,100167.03
2023-04-22T21:55:30.804Z,100147.16
2023-04-22T21:57:58.687Z,100171.94
2023-04-22T22:00:26.941Z,100156.97
2023-04-22T22:02:55.294Z,100173.78
2023-04-22T22:05:23.386Z,100171.72
2023-04-22T22:07:53.039Z,100147.94
2023-04-22T22:10:22.725Z,100171.28
2023-04-22T22:15:35.008Z,100152.25
2023-04-22T22:43:03.596Z,100195.66
2023-04-22T22:45:32.355Z,100195.66
2023-04-22T22:48:00.389Z,100181.12
2023-04-22T22:50:28.407Z,100189.69
2023-04-22T22:52:56.623Z,100179.41
2023-04-22T22:55:24.532Z,100185.13
2023-04-22T22:57:52.809Z,100182.66
2023-04-22T23:00:21.897Z,100177.72
2023-04-22T23:15:23.003Z,100173.72
2023-04-22T23:17:52.067Z,100173.72
2023-04-22T23:20:20.579Z,100169.22
2023-04-22T23:22:50.457Z,100175.47
2023-04-22T23:25:18.975Z,100156.84
2023-04-22T23:27:47.118Z,100167.13
2023-04-22T23:30:15.496Z,100142.94
2023-04-22T23:32:44.463Z,100169.91
2023-04-22T23:35:14.269Z,100176.41
